Time;durP1;ratioP1;P1;durP2;ratioP2;P2;SDS_P1;SDS_P2;PMS_P1;PMS_P2;Temp;Humidity;BMP_temperature;BMP_pressure;BME280_temperature;BME280_humidity;BME280_pressure;Samples;Min_cycle;Max_cycle;Signal;HPM_P1;HPM_P2
2022/07/31 00:00:41;;;;;;;2.20;1.40;;;18.90;99.90;;;;;;4995145;28;20486;-70
2022/07/31 00:03:07;;;;;;;2.35;1.67;;;18.90;99.90;;;;;;4995598;28;20050;-70
2022/07/31 00:05:34;;;;;;;2.13;1.40;;;18.90;99.90;;;;;;4997320;28;20371;-70
2022/07/31 00:08:00;;;;;;;3.33;1.70;;;18.90;99.90;;;;;;4996848;28;20152;-69
2022/07/31 00:10:26;;;;;;;2.38;1.70;;;18.90;99.90;;;;;;4996758;28;20043;-69
2022/07/31 00:12:52;;;;;;;3.28;1.63;;;18.90;99.90;;;;;;4996111;28;20363;-69
2022/07/31 00:15:18;;;;;;;2.83;1.90;;;18.90;99.90;;;;;;4996290;28;20046;-69
2022/07/31 00:17:44;;;;;;;1.80;1.58;;;18.90;99.90;;;;;;4994887;28;20491;-69
2022/07/31 00:20:12;;;;;;;2.00;1.60;;;18.90;99.90;;;;;;4996234;28;20137;-69
2022/07/31 00:22:38;;;;;;;3.17;1.88;;;18.80;99.90;;;;;;4979084;28;20057;-69
2022/07/31 00:25:04;;;;;;;4.70;1.50;;;18.90;99.90;;;;;;4996178;28;20124;-69
2022/07/31 00:27:30;;;;;;;2.08;1.60;;;18.80;99.90;;;;;;4996132;28;20090;-69
2022/07/31 00:29:56;;;;;;;2.63;1.65;;;18.80;99.90;;;;;;4994898;28;20118;-69
2022/07/31 00:32:23;;;;;;;2.70;1.60;;;18.80;99.90;;;;;;4979478;28;20046;-69
2022/07/31 00:34:49;;;;;;;3.05;1.65;;;18.80;99.90;;;;;;4994789;28;20046;-69
2022/07/31 00:37:15;;;;;;;2.28;1.85;;;18.80;99.90;;;;;;4995338;28;20056;-69
2022/07/31 00:39:40;;;;;;;4.05;1.60;;;18.80;99.90;;;;;;4996423;28;20042;-69
2022/07/31 00:42:16;;;;;;;3.13;1.83;;;18.80;99.90;;;;;;4995079;28;20057;-69
2022/07/31 00:44:42;;;;;;;2.70;1.38;;;18.80;99.90;;;;;;4995919;28;20038;-69
2022/07/31 00:47:07;;;;;;;4.00;1.70;;;18.80;99.90;;;;;;4994591;28;20050;-69
2022/07/31 00:49:33;;;;;;;3.03;1.58;;;18.80;99.90;;;;;;4979217;28;20054;-69
2022/07/31 00:51:59;;;;;;;4.93;2.03;;;18.80;99.90;;;;;;4962526;28;20050;-69
2022/07/31 00:54:25;;;;;;;2.47;1.63;;;18.80;99.90;;;;;;4994348;28;20053;-69
2022/07/31 00:56:51;;;;;;;2.67;1.85;;;18.80;99.90;;;;;;4996144;28;20046;-69
2022/07/31 00:59:16;;;;;;;3.58;1.80;;;18.80;99.90;;;;;;4993797;28;20050;-69
2022/07/31 01:01:42;;;;;;;2.63;1.58;;;18.80;99.90;;;;;;4978484;28;20089;-69
2022/07/31 01:04:07;;;;;;;3.30;2.10;;;18.80;99.90;;;;;;4995437;28;20380;-69
2022/07/31 01:06:33;;;;;;;2.58;2.20;;;18.80;99.90;;;;;;4993986;28;20536;-70
2022/07/31 01:08:59;;;;;;;2.13;1.92;;;18.80;99.90;;;;;;4993876;28;20054;-70
2022/07/31 01:11:46;;;;;;;3.03;2.20;;;18.70;99.90;;;;;;4995277;28;20082;-70
2022/07/31 01:14:13;;;;;;;4.47;2.15;;;18.80;99.90;;;;;;4993806;28;20490;-70
2022/07/31 01:16:47;;;;;;;3.97;1.77;;;18.70;99.90;;;;;;4995196;28;20057;-70
2022/07/31 01:19:21;;;;;;;4.72;2.15;;;18.70;99.90;;;;;;4995154;28;20061;-70
2022/07/31 01:22:15;;;;;;;3.95;1.80;;;18.70;99.90;;;;;;4994947;28;20378;-70
2022/07/31 01:25:08;;;;;;;3.30;1.80;;;18.70;99.90;;;;;;4965656;28;20067;-70
2022/07/31 01:27:57;;;;;;;2.45;2.22;;;18.70;99.90;;;;;;4994098;28;20081;-70
2022/07/31 01:30:29;;;;;;;6.53;2.20;;;18.60;99.90;;;;;;4994309;28;20050;-70
2022/07/31 01:33:01;;;;;;;4.03;1.93;;;18.60;99.90;;;;;;4995275;28;20047;-70
2022/07/31 01:35:31;;;;;;;2.88;1.90;;;18.60;99.90;;;;;;4994929;28;20061;-69
2022/07/31 01:38:07;;;;;;;2.90;1.70;;;18.60;99.90;;;;;;4993927;28;20514;-69
2022/07/31 01:40:36;;;;;;;4.70;2.30;;;18.50;99.90;;;;;;4994113;28;20057;-69
2022/07/31 01:43:15;;;;;;;5.10;2.10;;;18.50;99.90;;;;;;4993746;28;20050;-69
2022/07/31 01:45:44;;;;;;;4.28;2.35;;;18.50;99.90;;;;;;4994811;28;20050;-69
2022/07/31 01:48:13;;;;;;;3.08;1.90;;;18.40;99.90;;;;;;4994664;28;20054;-69
2022/07/31 01:50:42;;;;;;;4.25;2.20;;;18.40;99.90;;;;;;4993407;28;20529;-69
2022/07/31 01:53:09;;;;;;;2.67;2.10;;;18.40;99.90;;;;;;4993041;28;20088;-69
2022/07/31 01:55:37;;;;;;;2.70;2.17;;;18.40;99.90;;;;;;4977507;28;20061;-69
2022/07/31 01:58:04;;;;;;;2.47;2.20;;;18.30;99.90;;;;;;4995277;28;20054;-70
2022/07/31 02:00:29;;;;;;;5.40;2.45;;;18.30;99.90;;;;;;4961448;28;20097;-69
2022/07/31 02:02:57;;;;;;;2.97;2.13;;;18.30;99.90;;;;;;4994955;28;20486;-69
2022/07/31 02:05:24;;;;;;;4.57;2.42;;;18.20;99.90;;;;;;4993178;28;20081;-69
2022/07/31 02:07:52;;;;;;;4.40;2.20;;;18.20;99.90;;;;;;4992928;28;20120;-69
2022/07/31 02:10:19;;;;;;;4.07;2.70;;;18.20;99.90;;;;;;4976720;28;20446;-69
2022/07/31 02:12:46;;;;;;;2.78;2.45;;;18.10;99.90;;;;;;4977932;28;20058;-69
2022/07/31 02:15:15;;;;;;;3.35;2.50;;;18.10;99.90;;;;;;4993057;28;20038;-69
2022/07/31 02:17:44;;;;;;;6.53;2.47;;;18.10;99.90;;;;;;4993268;28;20124;-69
2022/07/31 02:20:11;;;;;;;4.70;2.33;;;18.00;99.90;;;;;;4994196;28;20043;-69
2022/07/31 02:22:37;;;;;;;3.83;2.22;;;18.00;99.90;;;;;;4993260;28;20132;-69
2022/07/31 02:25:05;;;;;;;2.53;2.30;;;18.10;99.90;;;;;;4992925;28;20558;-69
2022/07/31 02:27:32;;;;;;;3.75;2.47;;;18.00;99.90;;;;;;4976664;28;20066;-69
2022/07/31 02:30:01;;;;;;;2.92;2.22;;;18.00;99.90;;;;;;4994130;28;20054;-70
2022/07/31 02:32:28;;;;;;;3.88;2.53;;;18.00;99.90;;;;;;4994654;28;20038;-69
2022/07/31 02:34:55;;;;;;;3.47;2.25;;;18.00;99.90;;;;;;4976889;28;20069;-70
2022/07/31 02:37:25;;;;;;;3.45;2.50;;;18.00;99.90;;;;;;4994060;28;20054;-69
2022/07/31 02:39:53;;;;;;;3.88;2.53;;;18.10;99.90;;;;;;4994911;28;20169;-69
2022/07/31 02:42:21;;;;;;;4.18;2.67;;;18.10;99.90;;;;;;4992982;28;20474;-69
2022/07/31 02:44:49;;;;;;;4.88;2.45;;;18.10;99.90;;;;;;4976844;28;20054;-70
2022/07/31 02:47:15;;;;;;;4.43;2.42;;;18.10;99.90;;;;;;4992796;28;20050;-70
2022/07/31 02:49:41;;;;;;;4.82;2.88;;;18.10;99.90;;;;;;4993986;28;20050;-70
2022/07/31 02:52:08;;;;;;;2.83;2.53;;;18.10;99.90;;;;;;4994562;28;20046;-69
2022/07/31 02:54:38;;;;;;;3.05;2.47;;;18.10;99.90;;;;;;4992709;28;20073;-69
2022/07/31 02:57:03;;;;;;;3.17;2.60;;;18.10;99.90;;;;;;4993095;28;20046;-79
2022/07/31 02:59:29;;;;;;;5.32;2.58;;;18.10;99.90;;;;;;4993930;28;20387;-79
2022/07/31 03:01:55;;;;;;;4.07;2.50;;;18.10;99.90;;;;;;4993976;28;20046;-79
2022/07/31 03:04:21;;;;;;;4.53;2.22;;;18.10;99.90;;;;;;4976670;28;20100;-79
2022/07/31 03:06:50;;;;;;;3.47;2.60;;;18.00;99.90;;;;;;4976775;28;20081;-79
2022/07/31 03:09:16;;;;;;;2.47;2.17;;;18.10;99.90;;;;;;4993855;28;20057;-78
2022/07/31 03:11:42;;;;;;;3.60;2.15;;;18.00;99.90;;;;;;4994722;28;20054;-79
2022/07/31 03:14:10;;;;;;;2.72;2.53;;;18.00;99.90;;;;;;4993825;28;20047;-79
2022/07/31 03:16:37;;;;;;;4.00;2.13;;;18.00;99.90;;;;;;4993770;28;20050;-79
2022/07/31 03:19:04;;;;;;;3.20;1.95;;;18.00;99.90;;;;;;4992871;28;20042;-79
2022/07/31 03:21:30;;;;;;;3.28;2.40;;;18.00;99.90;;;;;;4977926;28;20047;-79
2022/07/31 03:23:57;;;;;;;3.38;1.98;;;18.00;99.90;;;;;;4996291;28;20053;-78
2022/07/31 03:26:23;;;;;;;1.88;1.77;;;18.00;99.90;;;;;;4997427;28;20057;-79
2022/07/31 03:28:49;;;;;;;3.10;2.47;;;18.00;99.90;;;;;;4996300;28;20050;-79
2022/07/31 03:31:14;;;;;;;5.28;2.30;;;18.00;99.90;;;;;;4979874;28;20096;-79
2022/07/31 03:33:41;;;;;;;2.53;2.30;;;18.00;99.90;;;;;;4996231;28;20046;-79
2022/07/31 03:36:08;;;;;;;3.38;2.80;;;18.00;99.90;;;;;;4996100;28;20072;-78
2022/07/31 03:38:34;;;;;;;2.65;2.28;;;18.00;99.90;;;;;;4997194;28;20054;-79
2022/07/31 03:41:00;;;;;;;6.00;2.25;;;18.00;99.90;;;;;;4996984;28;20375;-79
2022/07/31 03:43:29;;;;;;;2.45;2.25;;;18.00;99.90;;;;;;4996403;28;20042;-78
2022/07/31 03:45:56;;;;;;;6.15;2.47;;;18.00;99.90;;;;;;4997110;28;20399;-78
2022/07/31 03:48:22;;;;;;;3.53;2.40;;;17.90;99.90;;;;;;4980357;28;20062;-79
2022/07/31 03:50:49;;;;;;;4.00;2.40;;;17.90;99.90;;;;;;4996953;28;20194;-79
2022/07/31 03:53:15;;;;;;;3.97;2.35;;;17.90;99.90;;;;;;4995658;28;20054;-79
2022/07/31 03:55:42;;;;;;;3.80;2.42;;;17.90;99.90;;;;;;4996887;28;20046;-79
2022/07/31 03:58:08;;;;;;;4.38;2.30;;;17.90;99.90;;;;;;4995739;28;20173;-79
2022/07/31 04:00:35;;;;;;;2.60;2.40;;;17.90;99.90;;;;;;4995872;28;20087;-79
2022/07/31 04:03:07;;;;;;;2.30;2.10;;;17.90;99.90;;;;;;4996917;28;20125;-79
2022/07/31 04:05:33;;;;;;;4.72;2.60;;;17.90;99.90;;;;;;5001941;28;20106;-79
2022/07/31 04:07:59;;;;;;;4.28;2.10;;;17.90;99.90;;;;;;4996718;28;20121;-78
2022/07/31 04:10:25;;;;;;;3.78;2.22;;;17.90;99.90;;;;;;4995455;28;20401;-79
2022/07/31 04:12:51;;;;;;;5.30;2.63;;;17.90;99.90;;;;;;4996360;28;20046;-78
2022/07/31 04:15:17;;;;;;;3.30;2.63;;;17.90;99.90;;;;;;4996339;28;20371;-79
2022/07/31 04:17:42;;;;;;;5.13;2.28;;;17.90;99.90;;;;;;4979664;28;20081;-78
2022/07/31 04:20:10;;;;;;;2.83;2.25;;;17.90;99.90;;;;;;4996231;28;20100;-78
2022/07/31 04:22:37;;;;;;;4.10;2.33;;;17.90;99.90;;;;;;4996326;28;20056;-79
2022/07/31 04:25:04;;;;;;;3.47;2.40;;;17.80;99.90;;;;;;4995125;28;20050;-79
2022/07/31 04:27:30;;;;;;;3.95;2.28;;;17.80;99.90;;;;;;4996252;28;20214;-79
2022/07/31 04:29:56;;;;;;;4.80;2.70;;;17.80;99.90;;;;;;4995009;28;20141;-79
2022/07/31 04:32:23;;;;;;;8.93;3.15;;;17.80;99.90;;;;;;4996208;28;20534;-79
2022/07/31 04:34:49;;;;;;;3.63;2.63;;;17.80;99.90;;;;;;4996023;28;20066;-79
2022/07/31 04:37:15;;;;;;;5.18;3.00;;;17.80;99.90;;;;;;4995063;28;20065;-79
2022/07/31 04:39:42;;;;;;;3.80;2.60;;;17.90;99.90;;;;;;4979641;28;20101;-79
2022/07/31 04:42:07;;;;;;;3.20;2.63;;;17.90;99.90;;;;;;4994856;28;20050;-79
2022/07/31 04:44:33;;;;;;;3.65;2.60;;;17.90;99.90;;;;;;4995181;28;20046;-78
2022/07/31 04:47:01;;;;;;;2.97;2.45;;;17.90;99.90;;;;;;4994786;28;20058;-79
2022/07/31 04:49:27;;;;;;;3.72;2.67;;;17.90;99.90;;;;;;4995247;28;20058;-78
2022/07/31 04:51:53;;;;;;;7.40;2.60;;;18.00;99.90;;;;;;4994900;28;20504;-79
2022/07/31 04:54:18;;;;;;;4.07;2.88;;;18.00;99.90;;;;;;4996227;28;20137;-78
2022/07/31 04:56:46;;;;;;;3.22;2.22;;;18.10;99.90;;;;;;4995744;28;20050;-78
2022/07/31 04:59:13;;;;;;;3.38;2.45;;;18.10;99.90;;;;;;4994360;28;20054;-79
2022/07/31 05:01:40;;;;;;;3.10;2.80;;;18.10;99.90;;;;;;4995615;28;20061;-78
2022/07/31 05:04:07;;;;;;;2.90;2.60;;;18.20;99.90;;;;;;4995685;28;20046;-78
2022/07/31 05:06:34;;;;;;;3.47;2.85;;;18.30;99.90;;;;;;4994227;28;20065;-79
2022/07/31 05:09:01;;;;;;;3.47;2.45;;;18.30;99.90;;;;;;4995397;28;20398;-79
2022/07/31 05:11:27;;;;;;;4.72;3.08;;;18.40;99.90;;;;;;4994496;28;20042;-79
2022/07/31 05:13:55;;;;;;;4.15;2.72;;;18.40;99.90;;;;;;4978009;28;20065;-78
2022/07/31 05:16:22;;;;;;;3.38;2.80;;;18.50;99.90;;;;;;4994328;28;20061;-78
2022/07/31 05:18:48;;;;;;;5.45;2.90;;;18.50;99.90;;;;;;4977658;28;20464;-79
2022/07/31 05:21:14;;;;;;;6.05;3.28;;;18.50;99.90;;;;;;4993995;28;20064;-78
2022/07/31 05:23:42;;;;;;;5.22;2.92;;;18.50;99.90;;;;;;4995165;28;20125;-79
2022/07/31 05:26:08;;;;;;;3.22;2.92;;;18.60;99.90;;;;;;4978726;28;20089;-78
2022/07/31 05:28:35;;;;;;;4.78;3.42;;;18.60;99.90;;;;;;4995882;28;20058;-78
2022/07/31 05:31:01;;;;;;;4.35;3.33;;;18.60;99.90;;;;;;4993831;28;20394;-79
2022/07/31 05:33:27;;;;;;;3.38;2.88;;;18.60;99.90;;;;;;4993705;28;20042;-79
2022/07/31 05:35:54;;;;;;;3.95;2.88;;;18.60;99.90;;;;;;4995230;28;20517;-79
2022/07/31 05:38:20;;;;;;;6.20;3.33;;;18.60;99.90;;;;;;4994872;28;20101;-79
2022/07/31 05:40:45;;;;;;;4.55;3.83;;;18.70;99.90;;;;;;4993735;28;20050;-79
2022/07/31 05:43:11;;;;;;;3.67;3.08;;;18.70;99.90;;;;;;4961528;28;20057;-78
2022/07/31 05:45:37;;;;;;;6.75;3.13;;;18.70;99.90;;;;;;4994743;28;20061;-78
2022/07/31 05:48:03;;;;;;;5.97;3.42;;;18.80;99.90;;;;;;4993630;28;20050;-78
2022/07/31 05:50:29;;;;;;;5.80;3.42;;;18.80;99.90;;;;;;4994375;28;20046;-79
2022/07/31 05:52:55;;;;;;;4.15;3.00;;;18.90;99.90;;;;;;4978348;28;20505;-78
2022/07/31 05:55:21;;;;;;;4.78;3.10;;;18.90;99.90;;;;;;4993468;28;20038;-78
2022/07/31 05:57:47;;;;;;;5.95;3.15;;;18.90;99.90;;;;;;4993663;28;20047;-79
2022/07/31 06:00:15;;;;;;;4.22;3.45;;;19.00;99.90;;;;;;4994271;28;20054;-80
2022/07/31 06:02:41;;;;;;;7.00;3.70;;;19.00;99.90;;;;;;4993453;28;20086;-79
2022/07/31 06:05:07;;;;;;;5.78;3.10;;;19.10;99.90;;;;;;4993275;28;20050;-79
2022/07/31 06:07:33;;;;;;;4.75;2.88;;;19.10;99.90;;;;;;4978008;28;20058;-79
2022/07/31 06:09:59;;;;;;;6.40;3.50;;;19.20;99.90;;;;;;4995414;28;20048;-79
2022/07/31 06:12:25;;;;;;;3.85;3.05;;;19.20;99.90;;;;;;4994391;28;20447;-78
2022/07/31 06:14:50;;;;;;;7.85;3.88;;;19.20;99.90;;;;;;4995292;28;20075;-79
2022/07/31 06:17:16;;;;;;;4.43;3.28;;;19.20;99.90;;;;;;4994711;28;20489;-79
2022/07/31 06:19:42;;;;;;;5.90;3.30;;;19.20;99.90;;;;;;4994266;28;20446;-79
2022/07/31 06:22:07;;;;;;;4.07;3.05;;;19.20;99.90;;;;;;4993706;28;20483;-79
2022/07/31 06:24:33;;;;;;;3.65;3.30;;;19.20;99.90;;;;;;4977261;28;20057;-78
2022/07/31 06:27:00;;;;;;;3.42;3.13;;;19.20;99.90;;;;;;4976858;28;20437;-79
2022/07/31 06:29:29;;;;;;;5.20;3.13;;;19.30;99.90;;;;;;4993137;28;20042;-79
2022/07/31 06:31:56;;;;;;;4.53;3.17;;;19.20;99.90;;;;;;4993174;28;20050;-79
2022/07/31 06:34:24;;;;;;;4.20;2.85;;;19.30;99.90;;;;;;4992981;28;20053;-79
2022/07/31 06:36:50;;;;;;;4.70;3.03;;;19.30;99.90;;;;;;4993457;28;20093;-79
2022/07/31 06:39:16;;;;;;;5.00;3.00;;;19.30;99.90;;;;;;4994201;28;20090;-79
2022/07/31 06:41:48;;;;;;;7.35;3.03;;;19.30;99.90;;;;;;4976899;28;20047;-79
2022/07/31 06:44:18;;;;;;;3.42;3.13;;;19.30;99.90;;;;;;4993983;28;20105;-79
2022/07/31 06:46:45;;;;;;;2.83;2.60;;;19.30;99.90;;;;;;4976945;28;20042;-79
2022/07/31 06:49:11;;;;;;;4.38;2.90;;;19.40;99.90;;;;;;4992900;28;20082;-79
2022/07/31 06:51:37;;;;;;;3.22;2.92;;;19.40;99.90;;;;;;4994075;28;20090;-79
2022/07/31 06:54:06;;;;;;;4.75;2.65;;;19.40;99.90;;;;;;4992839;28;20155;-78
2022/07/31 06:56:32;;;;;;;4.28;3.00;;;19.40;99.90;;;;;;4993824;28;20474;-79
2022/07/31 06:59:02;;;;;;;3.97;2.60;;;19.50;99.90;;;;;;4980663;28;20057;-79
2022/07/31 07:01:28;;;;;;;3.60;2.92;;;19.50;99.90;;;;;;4997846;28;20398;-79
2022/07/31 07:03:54;;;;;;;4.13;2.72;;;19.50;99.90;;;;;;4997796;28;20056;-79
2022/07/31 07:06:20;;;;;;;4.35;2.63;;;19.60;99.90;;;;;;5000226;28;20046;-80
2022/07/31 07:08:46;;;;;;;4.25;2.90;;;19.60;99.90;;;;;;4999448;28;20054;-79
2022/07/31 07:11:12;;;;;;;2.97;2.50;;;19.70;99.90;;;;;;5000074;28;20108;-79
2022/07/31 07:13:38;;;;;;;5.18;2.50;;;19.70;99.90;;;;;;5000137;28;20073;-80
2022/07/31 07:16:05;;;;;;;6.97;2.70;;;19.80;99.90;;;;;;4982735;28;20133;-80
2022/07/31 07:18:30;;;;;;;6.00;2.80;;;19.80;99.90;;;;;;4997930;28;20090;-79
2022/07/31 07:20:56;;;;;;;3.00;2.55;;;19.90;99.90;;;;;;4996663;28;20554;-80
2022/07/31 07:23:22;;;;;;;3.38;2.75;;;19.90;99.90;;;;;;4997629;28;20081;-79
2022/07/31 07:25:48;;;;;;;2.60;2.33;;;20.00;99.90;;;;;;4980574;28;20046;-79
2022/07/31 07:28:14;;;;;;;3.88;2.30;;;20.00;99.90;;;;;;4996358;28;20053;-80
2022/07/31 07:30:40;;;;;;;6.53;2.78;;;20.00;99.90;;;;;;4981026;28;20050;-80
2022/07/31 07:33:05;;;;;;;4.95;2.42;;;20.10;99.90;;;;;;4980877;28;20510;-80
2022/07/31 07:35:31;;;;;;;5.03;2.38;;;20.10;99.90;;;;;;4980188;28;20467;-80
2022/07/31 07:37:57;;;;;;;4.30;2.35;;;20.10;99.90;;;;;;4996179;28;20498;-80
2022/07/31 07:40:24;;;;;;;3.88;2.55;;;20.10;99.90;;;;;;4979919;28;20042;-80
2022/07/31 07:42:50;;;;;;;4.22;2.45;;;20.20;99.90;;;;;;4996062;28;20046;-80
2022/07/31 07:45:16;;;;;;;2.92;2.40;;;20.20;99.90;;;;;;4997083;28;20050;-86
2022/07/31 07:47:41;;;;;;;3.28;2.33;;;20.20;99.90;;;;;;4996168;28;20133;-80
2022/07/31 07:50:08;;;;;;;4.43;2.63;;;20.20;99.90;;;;;;4995771;28;20384;-79
2022/07/31 07:52:35;;;;;;;3.83;2.88;;;20.20;99.90;;;;;;4963722;28;20054;-79
2022/07/31 07:55:00;;;;;;;3.60;2.65;;;20.30;99.90;;;;;;4979822;28;20052;-79
2022/07/31 07:57:26;;;;;;;4.72;2.60;;;20.30;99.90;;;;;;4964608;28;20050;-78
2022/07/31 07:59:53;;;;;;;5.00;2.55;;;20.30;99.90;;;;;;4997677;28;20378;-80
2022/07/31 08:02:18;;;;;;;5.80;2.53;;;20.40;99.90;;;;;;4996504;28;20529;-79
2022/07/31 08:04:47;;;;;;;5.93;2.50;;;20.40;99.90;;;;;;4995671;28;20086;-79
2022/07/31 08:07:13;;;;;;;3.95;2.60;;;20.40;99.90;;;;;;4963213;28;20062;-79
2022/07/31 08:09:39;;;;;;;2.85;2.30;;;20.40;99.90;;;;;;4978204;28;20121;-78
2022/07/31 08:12:08;;;;;;;3.50;2.70;;;20.50;99.90;;;;;;4997687;28;20046;-78
2022/07/31 08:14:34;;;;;;;5.57;2.78;;;20.50;99.90;;;;;;4995598;28;20441;-78
2022/07/31 08:17:00;;;;;;;3.13;2.60;;;20.50;99.90;;;;;;4947544;28;20057;-79
2022/07/31 08:19:25;;;;;;;3.58;2.95;;;20.50;99.90;;;;;;4996102;28;20046;-78
2022/07/31 08:21:51;;;;;;;3.55;2.67;;;20.50;99.90;;;;;;4995284;28;20046;-79
2022/07/31 08:24:17;;;;;;;5.75;3.20;;;20.50;99.90;;;;;;4979319;28;20050;-80
2022/07/31 08:29:27;;;;;;;5.53;2.90;;;20.60;99.90;;;;;;4968552;28;20050;-78
2022/07/31 08:31:53;;;;;;;4.25;3.28;;;20.60;99.90;;;;;;4977993;28;20393;-79
2022/07/31 08:34:19;;;;;;;4.28;2.95;;;20.60;99.90;;;;;;4996131;28;20038;-78
2022/07/31 08:36:45;;;;;;;4.05;3.25;;;20.70;99.90;;;;;;4995274;28;20403;-78
2022/07/31 08:39:11;;;;;;;3.38;3.05;;;20.70;99.90;;;;;;4996470;28;20061;-75
2022/07/31 08:41:39;;;;;;;4.05;3.30;;;20.80;99.90;;;;;;4996535;28;20042;-78
2022/07/31 08:44:05;;;;;;;3.15;2.95;;;20.90;99.90;;;;;;4995908;28;20046;-78
2022/07/31 08:46:35;;;;;;;3.65;3.10;;;20.90;99.90;;;;;;4995419;28;20056;-79
2022/07/31 08:49:02;;;;;;;4.05;3.40;;;21.00;99.90;;;;;;4978584;28;20039;-78
2022/07/31 08:51:33;;;;;;;4.13;3.00;;;21.10;99.90;;;;;;4994644;28;20514;-79
2022/07/31 08:54:01;;;;;;;5.10;3.17;;;21.20;99.90;;;;;;4994667;28;20043;-79
2022/07/31 08:56:27;;;;;;;6.30;3.45;;;21.20;99.90;;;;;;4994028;28;20062;-79
2022/07/31 08:58:55;;;;;;;5.57;3.50;;;21.30;99.90;;;;;;4995201;28;20054;-78
2022/07/31 09:01:21;;;;;;;3.28;2.90;;;21.40;99.90;;;;;;4994619;28;20112;-78
2022/07/31 09:03:47;;;;;;;3.33;3.03;;;21.50;99.90;;;;;;4993546;28;20054;-80
2022/07/31 09:06:13;;;;;;;5.30;3.70;;;21.50;99.90;;;;;;4994738;28;20048;-78
2022/07/31 09:08:39;;;;;;;3.55;3.25;;;21.60;99.90;;;;;;4994103;28;20085;-78
2022/07/31 09:11:08;;;;;;;4.72;3.78;;;21.60;99.90;;;;;;4993656;28;20069;-79
2022/07/31 09:13:34;;;;;;;4.47;3.08;;;21.70;99.90;;;;;;4993671;28;20054;-78
2022/07/31 09:16:01;;;;;;;5.75;3.17;;;21.70;99.90;;;;;;4993699;28;20133;-78
2022/07/31 09:18:27;;;;;;;5.95;3.65;;;21.70;99.90;;;;;;4994236;28;20471;-78
2022/07/31 09:20:58;;;;;;;4.95;4.28;;;21.70;99.90;;;;;;4993574;28;20080;-78
2022/07/31 09:23:26;;;;;;;6.80;4.50;;;21.60;99.90;;;;;;4994737;28;20068;-77
2022/07/31 09:25:54;;;;;;;4.97;4.47;;;21.60;99.90;;;;;;4993349;28;20129;-78
2022/07/31 09:28:19;;;;;;;9.15;4.78;;;21.50;99.90;;;;;;4977597;28;20066;-78
2022/07/31 09:30:54;;;;;;;6.43;4.50;;;21.40;99.90;;;;;;4977019;28;20058;-78
2022/07/31 09:33:20;;;;;;;9.80;4.97;;;21.40;99.90;;;;;;4993275;28;20050;-77
2022/07/31 09:35:51;;;;;;;5.38;4.85;;;21.30;99.90;;;;;;4994378;28;20053;-78
2022/07/31 09:38:18;;;;;;;5.43;4.70;;;21.20;99.90;;;;;;4978476;28;20050;-78
2022/07/31 09:40:44;;;;;;;6.95;5.22;;;21.20;99.90;;;;;;4977485;28;20054;-78
2022/07/31 09:43:23;;;;;;;12.68;5.88;;;21.10;99.90;;;;;;4977311;28;20120;-76
2022/07/31 09:46:00;;;;;;;7.18;5.50;;;21.00;99.90;;;;;;4992979;28;20122;-76
2022/07/31 09:48:26;;;;;;;7.28;5.90;;;20.90;99.90;;;;;;4946375;28;20050;-76
2022/07/31 09:50:54;;;;;;;7.45;5.60;;;20.90;99.90;;;;;;4993588;28;20057;-77
2022/07/31 09:53:20;;;;;;;9.73;5.30;;;20.80;99.90;;;;;;4978275;28;20433;-77
2022/07/31 09:55:53;;;;;;;7.28;5.75;;;20.80;99.90;;;;;;4995747;28;20050;-77
2022/07/31 09:58:20;;;;;;;7.20;6.32;;;20.70;99.90;;;;;;4993219;28;20487;-76
2022/07/31 10:00:48;;;;;;;9.57;7.15;;;20.60;99.90;;;;;;4994053;28;20093;-77
2022/07/31 10:03:17;;;;;;;8.77;6.95;;;20.60;99.90;;;;;;4994042;28;20046;-76
2022/07/31 10:05:44;;;;;;;8.40;6.85;;;20.50;99.90;;;;;;4994315;28;20158;-76
2022/07/31 10:08:12;;;;;;;10.35;7.25;;;20.50;99.90;;;;;;4995195;28;20067;-76
2022/07/31 10:10:39;;;;;;;10.18;6.80;;;20.50;99.90;;;;;;4993618;28;20056;-76
2022/07/31 10:13:09;;;;;;;8.27;7.22;;;20.50;99.90;;;;;;4994783;28;20054;-77
2022/07/31 10:15:36;;;;;;;8.43;7.28;;;20.50;99.90;;;;;;4993932;28;20042;-77
2022/07/31 10:18:04;;;;;;;8.57;7.32;;;20.40;99.90;;;;;;4993426;28;20050;-76
2022/07/31 10:20:33;;;;;;;10.85;8.07;;;20.40;99.90;;;;;;4993548;28;20090;-76
2022/07/31 10:23:16;;;;;;;9.05;8.05;;;20.40;99.90;;;;;;4977072;28;20057;-76
2022/07/31 10:25:49;;;;;;;10.75;8.88;;;20.40;99.90;;;;;;4994219;28;20070;-75
2022/07/31 10:28:15;;;;;;;;;;;20.30;99.90;;;;;;4994661;28;20140;-74
2022/07/31 10:30:42;;;;;;;10.70;8.70;;;20.30;99.90;;;;;;4993031;28;19922;-76
2022/07/31 10:33:08;;;;;;;11.18;9.80;;;20.20;99.90;;;;;;4993040;28;20050;-76
2022/07/31 10:35:41;;;;;;;10.80;9.00;;;20.20;99.90;;;;;;4992969;28;20372;-74
2022/07/31 10:38:22;;;;;;;11.98;9.40;;;20.20;99.90;;;;;;4994255;28;20135;-73
2022/07/31 10:41:11;;;;;;;14.73;11.43;;;20.20;99.90;;;;;;4993081;28;20052;-75
2022/07/31 10:43:54;;;;;;;13.90;11.07;;;20.20;99.90;;;;;;4977212;28;20062;-75
2022/07/31 10:46:28;;;;;;;13.43;10.70;;;20.20;99.90;;;;;;4993944;28;20053;-75
2022/07/31 10:48:55;;;;;;;13.35;10.57;;;20.20;99.90;;;;;;4993173;28;20153;-74
2022/07/31 10:51:22;;;;;;;12.88;11.20;;;20.30;99.90;;;;;;4976974;28;20050;-76
2022/07/31 10:54:02;;;;;;;13.20;11.48;;;20.30;99.90;;;;;;4976815;28;20049;-76
2022/07/31 10:56:38;;;;;;;12.77;10.80;;;20.30;99.90;;;;;;4992933;28;20050;-76
2022/07/31 10:59:04;;;;;;;18.95;12.65;;;20.30;99.90;;;;;;4994842;28;20058;-76
2022/07/31 11:01:30;;;;;;;12.50;11.30;;;20.30;99.90;;;;;;4992876;28;20054;-76
2022/07/31 11:04:01;;;;;;;13.60;11.02;;;20.30;99.90;;;;;;4993001;28;20045;-76
2022/07/31 11:06:38;;;;;;;13.02;11.00;;;20.30;99.90;;;;;;4992985;28;20054;-75
2022/07/31 11:09:04;;;;;;;13.95;11.60;;;20.30;99.90;;;;;;4994525;28;20054;-77
2022/07/31 11:11:35;;;;;;;12.90;11.32;;;20.30;99.90;;;;;;4976680;28;20073;-75
2022/07/31 11:14:01;;;;;;;15.20;12.70;;;20.30;99.90;;;;;;4993358;28;20054;-76
2022/07/31 11:16:28;;;;;;;13.98;12.02;;;20.30;99.90;;;;;;4994016;28;20046;-77
2022/07/31 11:19:01;;;;;;;14.57;11.60;;;20.30;99.90;;;;;;4976689;28;20054;-75
2022/07/31 11:21:34;;;;;;;12.63;11.35;;;20.30;99.90;;;;;;4993176;28;20387;-75
2022/07/31 11:24:00;;;;;;;14.70;11.73;;;20.30;99.90;;;;;;4993895;28;20368;-75
2022/07/31 11:26:26;;;;;;;15.60;13.15;;;20.30;99.90;;;;;;4994448;28;20050;-75
2022/07/31 11:28:52;;;;;;;16.80;12.88;;;20.30;99.90;;;;;;4976412;28;20038;-75
2022/07/31 11:31:18;;;;;;;14.13;12.20;;;20.30;99.90;;;;;;4976423;28;20061;-75
2022/07/31 11:33:46;;;;;;;13.60;11.65;;;20.30;99.90;;;;;;4945180;28;20051;-75
2022/07/31 11:36:18;;;;;;;13.75;12.30;;;20.30;99.90;;;;;;4992908;28;20058;-75
2022/07/31 11:38:48;;;;;;;16.92;13.43;;;20.30;99.90;;;;;;4993858;28;20062;-75
2022/07/31 11:41:14;;;;;;;15.45;13.88;;;20.20;99.90;;;;;;4994296;28;20049;-75
2022/07/31 11:43:48;;;;;;;20.00;13.80;;;20.20;99.90;;;;;;4995523;28;20046;-76
2022/07/31 11:46:24;;;;;;;15.93;12.25;;;20.10;99.90;;;;;;4980663;28;20050;-76
2022/07/31 11:48:51;;;;;;;18.23;13.35;;;20.20;99.90;;;;;;4996436;28;20394;-75
2022/07/31 11:51:18;;;;;;;16.90;13.13;;;20.10;99.90;;;;;;4997462;28;20054;-75
2022/07/31 11:53:44;;;;;;;13.75;11.60;;;20.20;99.90;;;;;;4996632;28;20050;-75
2022/07/31 11:56:10;;;;;;;12.35;10.52;;;20.20;99.90;;;;;;4995888;28;20129;-75
2022/07/31 11:58:37;;;;;;;13.82;11.02;;;20.20;99.90;;;;;;4998328;28;20042;-75
2022/07/31 12:01:04;;;;;;;10.82;9.73;;;20.10;99.90;;;;;;4997042;28;20100;-75
2022/07/31 12:03:36;;;;;;;14.02;11.57;;;20.00;99.90;;;;;;4996325;28;20422;-75
2022/07/31 12:06:03;;;;;;;15.43;11.77;;;20.00;99.90;;;;;;4995844;28;20042;-76
2022/07/31 12:08:29;;;;;;;13.32;11.90;;;20.00;99.90;;;;;;4979420;28;20054;-77
2022/07/31 12:10:56;;;;;;;15.20;13.35;;;20.00;99.90;;;;;;4996518;28;20089;-75
2022/07/31 12:13:23;;;;;;;18.17;13.80;;;19.90;99.90;;;;;;4947526;28;20057;-76
2022/07/31 12:16:04;;;;;;;18.20;13.88;;;19.90;99.90;;;;;;4996145;28;20473;-76
2022/07/31 12:18:57;;;;;;;15.32;12.45;;;19.90;99.90;;;;;;4996493;28;20089;-76
2022/07/31 12:21:32;;;;;;;14.07;12.15;;;19.90;99.90;;;;;;4998512;28;20105;-75
2022/07/31 12:23:58;;;;;;;15.98;12.82;;;19.90;99.90;;;;;;4995529;28;20069;-76
2022/07/31 12:26:32;;;;;;;15.40;12.80;;;19.80;99.90;;;;;;4995619;28;20046;-75
2022/07/31 12:29:05;;;;;;;16.40;13.48;;;19.80;99.90;;;;;;4995379;28;20050;-75
2022/07/31 12:31:50;;;;;;;15.38;13.18;;;19.70;99.90;;;;;;4995911;28;20336;-75
2022/07/31 12:34:31;;;;;;;18.23;14.13;;;19.70;99.90;;;;;;4979333;28;20053;-74
2022/07/31 12:37:21;;;;;;;28.77;15.45;;;19.70;99.90;;;;;;4978646;28;20049;-75
2022/07/31 12:39:46;;;;;;;19.10;14.32;;;19.60;99.90;;;;;;4995275;28;20046;-75
2022/07/31 12:42:43;;;;;;;20.75;16.08;;;19.60;99.90;;;;;;4978917;28;20065;-75
2022/07/31 12:45:09;;;;;;;23.10;16.55;;;19.60;99.90;;;;;;4996497;28;20062;-75
2022/07/31 12:47:35;;;;;;;29.98;20.30;;;19.60;99.90;;;;;;4994841;28;20054;-74
2022/07/31 12:50:02;;;;;;;33.17;20.20;;;19.50;99.90;;;;;;4994977;28;20141;-75